Time;durP1;ratioP1;P1;durP2;ratioP2;P2;SDS_P1;SDS_P2;PMS_P1;PMS_P2;Temp;Humidity;BMP_temperature;BMP_pressure;BME280_temperature;BME280_humidity;BME280_pressure;Samples;Min_cycle;Max_cycle;Signal;HPM_P1;HPM_P2
2022/04/17 00:01:02;;;;;;;2.35;1.50;;;12.30;48.40;;;;;;4912036;29;20333;-84
2022/04/17 00:03:29;;;;;;;2.90;1.70;;;12.20;48.50;;;;;;4861830;29;20168;-84
2022/04/17 00:05:54;;;;;;;3.00;1.53;;;12.10;48.70;;;;;;4887983;29;20092;-84
2022/04/17 00:08:20;;;;;;;1.85;1.40;;;12.10;48.70;;;;;;4905424;29;20126;-84
2022/04/17 00:10:48;;;;;;;2.67;1.60;;;12.00;48.70;;;;;;4891064;29;20032;-84
2022/04/17 00:13:14;;;;;;;2.90;1.47;;;11.90;48.80;;;;;;4891633;29;20068;-84
2022/04/17 00:15:40;;;;;;;3.20;1.60;;;11.90;49.00;;;;;;4897103;29;20028;-84
2022/04/17 00:18:06;;;;;;;2.20;1.40;;;11.80;48.90;;;;;;4889257;29;20035;-84
2022/04/17 00:20:32;;;;;;;3.00;1.60;;;11.80;49.00;;;;;;4887435;29;20039;-84
2022/04/17 00:22:58;;;;;;;2.70;1.53;;;11.70;49.10;;;;;;4882718;29;20040;-84
2022/04/17 00:25:23;;;;;;;2.33;1.40;;;11.60;49.10;;;;;;4877387;29;20429;-84
2022/04/17 00:27:49;;;;;;;3.23;1.50;;;11.60;49.20;;;;;;4883270;29;20327;-84
2022/04/17 00:30:15;;;;;;;2.20;1.50;;;11.50;49.30;;;;;;4895123;29;20058;-84
2022/04/17 00:32:40;;;;;;;2.63;1.52;;;11.40;49.50;;;;;;4898032;29;20345;-85
2022/04/17 00:35:08;;;;;;;1.93;1.20;;;11.30;49.60;;;;;;4861831;29;20520;-84
2022/04/17 00:37:34;;;;;;;2.67;1.63;;;11.30;49.70;;;;;;4909725;29;20972;-84
2022/04/17 00:40:00;;;;;;;2.60;1.42;;;11.20;49.80;;;;;;4893274;29;20481;-84
2022/04/17 00:42:25;;;;;;;2.20;1.42;;;11.10;49.90;;;;;;4871563;29;20413;-83
2022/04/17 00:44:51;;;;;;;2.07;1.40;;;11.10;50.10;;;;;;4879934;29;20020;-84
2022/04/17 00:47:17;;;;;;;2.53;1.40;;;11.00;50.30;;;;;;4896477;29;20378;-84
2022/04/17 00:49:46;;;;;;;2.23;1.70;;;10.90;50.20;;;;;;4880263;29;20028;-84
2022/04/17 00:52:13;;;;;;;2.15;1.52;;;10.90;50.20;;;;;;4911052;29;20048;-84
2022/04/17 00:54:44;;;;;;;2.75;1.60;;;10.80;50.30;;;;;;4895592;29;20032;-84
2022/04/17 00:57:12;;;;;;;2.33;1.50;;;10.80;50.90;;;;;;4892629;29;20043;-84
2022/04/17 00:59:42;;;;;;;2.00;1.40;;;10.70;50.70;;;;;;4874579;29;20567;-84
2022/04/17 01:02:09;;;;;;;2.20;1.40;;;10.70;50.80;;;;;;4914579;29;20043;-84
2022/04/17 01:04:35;;;;;;;2.30;1.50;;;10.60;50.80;;;;;;4868883;29;20123;-84
2022/04/17 01:07:02;;;;;;;2.63;1.58;;;10.60;51.00;;;;;;4884920;29;20019;-84
2022/04/17 01:09:29;;;;;;;2.10;1.40;;;10.50;51.10;;;;;;4885560;29;20088;-84
2022/04/17 01:11:55;;;;;;;2.83;1.52;;;10.40;51.10;;;;;;4917078;28;20418;-84
2022/04/17 01:14:21;;;;;;;2.63;1.70;;;10.40;51.20;;;;;;4901363;29;20548;-84
2022/04/17 01:16:47;;;;;;;2.30;1.60;;;10.30;51.30;;;;;;4900065;29;20032;-84
2022/04/17 01:19:13;;;;;;;2.33;1.53;;;10.20;51.40;;;;;;4895688;29;20738;-84
2022/04/17 01:21:43;;;;;;;2.30;1.45;;;10.20;51.40;;;;;;4885358;29;20036;-84
2022/04/17 01:27:01;;;;;;;2.65;1.52;;;10.10;51.80;;;;;;4911627;29;20092;-84
2022/04/17 01:29:35;;;;;;;2.83;1.58;;;10.10;51.90;;;;;;4881079;29;20032;-84
2022/04/17 01:32:06;;;;;;;2.30;1.30;;;10.00;52.50;;;;;;4881622;29;20043;-84
2022/04/17 01:34:32;;;;;;;2.50;1.50;;;9.90;52.30;;;;;;4899936;29;20124;-84
2022/04/17 01:36:59;;;;;;;3.22;1.40;;;9.90;52.00;;;;;;4867477;29;20039;-84
2022/04/17 01:39:24;;;;;;;2.25;1.52;;;9.80;52.10;;;;;;4919468;29;20033;-84
2022/04/17 01:41:51;;;;;;;3.00;1.60;;;9.80;52.20;;;;;;4911762;29;20050;-84
2022/04/17 01:44:18;;;;;;;2.72;1.60;;;9.80;52.40;;;;;;4878509;29;21473;-84
2022/04/17 01:46:45;;;;;;;2.35;1.42;;;9.70;52.40;;;;;;4899550;29;20107;-84
2022/04/17 01:49:12;;;;;;;2.38;1.50;;;9.70;52.50;;;;;;4892013;29;20195;-83
2022/04/17 01:51:39;;;;;;;3.07;1.50;;;9.60;52.60;;;;;;4897725;29;20028;-84
2022/04/17 01:54:07;;;;;;;2.83;1.60;;;9.60;52.60;;;;;;4892347;29;20177;-84
2022/04/17 01:56:34;;;;;;;1.98;1.50;;;9.60;52.70;;;;;;4906417;29;20058;-84
2022/04/17 01:59:00;;;;;;;2.25;1.40;;;9.60;52.70;;;;;;4862824;29;20111;-84
2022/04/17 02:01:26;;;;;;;2.10;1.40;;;9.50;52.90;;;;;;4886712;29;20032;-83
2022/04/17 02:03:51;;;;;;;2.50;1.40;;;9.50;53.00;;;;;;4882588;29;20040;-84
2022/04/17 02:06:17;;;;;;;2.40;1.38;;;9.40;52.90;;;;;;4881007;29;20047;-84
2022/04/17 02:08:44;;;;;;;2.37;1.40;;;9.40;52.90;;;;;;4875608;29;20153;-84
2022/04/17 02:11:10;;;;;;;2.35;1.60;;;9.40;53.10;;;;;;4904148;29;20095;-84
2022/04/17 02:13:36;;;;;;;2.28;1.45;;;9.40;53.20;;;;;;4883926;29;20044;-83
2022/04/17 02:16:03;;;;;;;2.65;1.60;;;9.30;53.10;;;;;;4889554;29;20119;-84
2022/04/17 02:18:28;;;;;;;2.40;1.38;;;9.30;53.20;;;;;;4914739;29;20429;-84
2022/04/17 02:20:54;;;;;;;2.53;1.60;;;9.20;53.10;;;;;;4907173;29;20063;-84
2022/04/17 02:23:20;;;;;;;2.28;1.67;;;9.20;53.10;;;;;;4864644;29;21707;-83
2022/04/17 02:25:46;;;;;;;2.38;1.38;;;9.20;53.20;;;;;;4886343;29;20033;-84
2022/04/17 02:28:14;;;;;;;1.87;1.20;;;9.20;53.20;;;;;;4900089;29;20345;-84
2022/04/17 02:30:40;;;;;;;2.55;1.60;;;9.10;53.30;;;;;;4877148;29;20094;-84
2022/04/17 02:33:05;;;;;;;2.05;1.30;;;9.10;53.20;;;;;;4901638;29;20091;-84
2022/04/17 02:35:31;;;;;;;2.23;1.20;;;9.10;53.30;;;;;;4885659;29;20111;-84
2022/04/17 02:37:57;;;;;;;2.13;1.30;;;9.10;53.30;;;;;;4890500;29;20035;-84
2022/04/17 02:40:23;;;;;;;2.20;1.50;;;9.00;53.20;;;;;;4886611;29;20020;-84
2022/04/17 02:42:49;;;;;;;1.53;1.20;;;9.00;53.30;;;;;;4884916;29;20040;-84
2022/04/17 02:45:15;;;;;;;2.53;1.40;;;8.90;53.30;;;;;;4892538;29;20207;-84
2022/04/17 02:47:45;;;;;;;1.63;1.13;;;8.90;53.40;;;;;;4899994;29;20294;-84
2022/04/17 02:50:12;;;;;;;2.20;1.30;;;8.90;53.40;;;;;;4914562;29;20032;-84
2022/04/17 02:52:38;;;;;;;2.10;1.20;;;8.90;53.60;;;;;;4895811;29;20032;-83
2022/04/17 02:55:05;;;;;;;2.25;1.45;;;8.90;53.60;;;;;;4873081;29;20493;-84
2022/04/17 02:57:31;;;;;;;2.85;1.20;;;8.80;53.60;;;;;;4927554;28;20425;-84
2022/04/17 02:59:57;;;;;;;1.80;1.20;;;8.70;53.60;;;;;;4875581;29;20047;-84
2022/04/17 03:07:52;;;;;;;2.28;1.33;;;8.70;53.60;;;;;;4910704;29;20425;-84
2022/04/17 03:10:18;;;;;;;2.20;1.20;;;8.70;53.70;;;;;;4888574;29;20040;-84
2022/04/17 03:12:44;;;;;;;2.13;1.30;;;8.60;53.80;;;;;;4881550;29;20225;-84
2022/04/17 03:15:10;;;;;;;2.28;1.20;;;8.60;53.80;;;;;;4882509;29;20500;-84
2022/04/17 03:17:36;;;;;;;1.73;1.20;;;8.50;53.70;;;;;;4895780;29;20266;-84
2022/04/17 03:20:03;;;;;;;1.97;1.17;;;8.50;53.80;;;;;;4912184;29;20795;-84
2022/04/17 03:22:29;;;;;;;2.42;1.30;;;8.50;53.90;;;;;;4893950;29;20036;-84
2022/04/17 03:24:55;;;;;;;1.90;1.20;;;8.50;53.90;;;;;;4865109;29;23349;-84
2022/04/17 03:27:21;;;;;;;2.33;1.27;;;8.50;53.90;;;;;;4894746;29;20127;-83
2022/04/17 03:29:47;;;;;;;2.30;1.40;;;8.40;53.90;;;;;;4895493;29;20067;-83
2022/04/17 03:32:13;;;;;;;2.30;1.30;;;8.40;54.00;;;;;;4889399;29;20151;-84
2022/04/17 03:34:38;;;;;;;2.43;1.20;;;8.40;54.10;;;;;;4882055;29;20036;-84
2022/04/17 03:37:05;;;;;;;1.63;1.10;;;8.40;54.10;;;;;;4884026;29;20127;-84
2022/04/17 03:39:34;;;;;;;1.80;1.20;;;8.30;54.10;;;;;;4928503;28;20032;-84
2022/04/17 03:42:00;;;;;;;2.43;1.43;;;8.30;54.10;;;;;;4915774;28;20036;-84
2022/04/17 03:44:26;;;;;;;1.60;1.10;;;8.30;54.10;;;;;;4895862;29;20082;-84
2022/04/17 03:46:52;;;;;;;1.75;1.25;;;8.20;54.10;;;;;;4886856;29;20111;-84
2022/04/17 03:49:18;;;;;;;1.85;1.30;;;8.20;54.10;;;;;;4867416;29;20216;-84
2022/04/17 03:51:43;;;;;;;2.20;1.13;;;8.10;54.00;;;;;;4889033;29;20230;-84
2022/04/17 03:54:10;;;;;;;1.63;1.10;;;8.10;54.10;;;;;;4885849;29;20559;-84
2022/04/17 03:56:35;;;;;;;2.33;1.23;;;8.10;54.20;;;;;;4883333;29;20024;-84
2022/04/17 03:59:04;;;;;;;1.80;1.10;;;8.10;54.30;;;;;;4896463;29;20028;-84
2022/04/17 04:01:29;;;;;;;2.00;1.20;;;8.00;54.40;;;;;;4873095;29;20464;-84
2022/04/17 04:03:55;;;;;;;1.90;1.30;;;8.00;54.50;;;;;;4896838;29;20032;-84
2022/04/17 04:06:21;;;;;;;1.65;1.25;;;7.90;54.60;;;;;;4915070;29;20028;-83
2022/04/17 04:08:50;;;;;;;1.75;1.10;;;7.80;54.60;;;;;;4895802;29;20028;-84
2022/04/17 04:11:17;;;;;;;2.03;1.25;;;7.80;54.80;;;;;;4898844;29;20036;-84
2022/04/17 04:13:43;;;;;;;1.73;1.30;;;7.70;54.70;;;;;;4876661;29;20263;-84
2022/04/17 04:16:09;;;;;;;1.67;1.10;;;7.70;54.70;;;;;;4871937;29;20420;-84
2022/04/17 04:18:35;;;;;;;1.50;1.00;;;7.60;54.70;;;;;;4896426;29;20034;-84
2022/04/17 04:21:01;;;;;;;2.03;1.27;;;7.60;54.80;;;;;;4885090;29;20036;-84
2022/04/17 04:23:30;;;;;;;1.95;1.30;;;7.60;54.90;;;;;;4892883;29;20120;-84
2022/04/17 04:25:56;;;;;;;1.95;1.30;;;7.50;55.00;;;;;;4895230;29;20131;-84
2022/04/17 04:28:33;;;;;;;2.47;1.10;;;7.40;55.20;;;;;;4883343;29;20028;-84
2022/04/17 04:31:00;;;;;;;1.60;1.00;;;7.40;55.30;;;;;;4881824;29;20497;-84
2022/04/17 04:33:25;;;;;;;2.03;1.40;;;7.40;55.40;;;;;;4903047;29;20453;-84
2022/04/17 04:35:51;;;;;;;2.57;1.23;;;7.30;55.40;;;;;;4867613;29;20036;-84
2022/04/17 04:38:17;;;;;;;1.65;1.17;;;7.30;55.50;;;;;;4881631;29;20358;-84
2022/04/17 04:40:43;;;;;;;1.83;1.20;;;7.20;55.40;;;;;;4894083;29;20236;-84
2022/04/17 04:43:09;;;;;;;2.97;1.23;;;7.20;55.50;;;;;;4881845;29;20446;-84
2022/04/17 04:49:29;;;;;;;2.00;1.27;;;7.10;55.60;;;;;;4900511;29;20092;-84
2022/04/17 04:51:05;;;;;;;2.15;1.30;;;7.00;55.70;;;;;;4875238;29;20041;-84
2022/04/17 04:53:30;;;;;;;1.83;1.13;;;7.00;55.80;;;;;;4875059;29;20032;-84
2022/04/17 04:55:56;;;;;;;2.10;1.30;;;7.00;55.90;;;;;;4909154;29;20129;-84
2022/04/17 04:58:21;;;;;;;3.07;1.40;;;6.90;55.90;;;;;;4896432;29;20059;-83
2022/04/17 05:00:47;;;;;;;1.87;1.20;;;6.90;56.00;;;;;;4877842;29;20240;-84
2022/04/17 05:03:13;;;;;;;3.13;1.38;;;6.90;56.10;;;;;;4889528;29;20028;-84
2022/04/17 05:05:38;;;;;;;1.97;1.30;;;6.80;56.20;;;;;;4885103;29;20068;-83
2022/04/17 05:08:04;;;;;;;2.63;1.55;;;6.80;56.30;;;;;;4882480;29;20228;-84
2022/04/17 05:10:30;;;;;;;2.85;1.58;;;6.80;56.50;;;;;;4883564;29;20095;-84
2022/04/17 05:12:56;;;;;;;2.30;1.50;;;6.80;56.60;;;;;;4895017;29;20024;-84
2022/04/17 05:15:22;;;;;;;2.08;1.20;;;6.80;56.60;;;;;;4849618;29;20033;-83
2022/04/17 05:17:48;;;;;;;2.83;1.30;;;6.80;56.60;;;;;;4895595;29;20036;-83
2022/04/17 05:20:14;;;;;;;1.92;1.17;;;6.80;56.70;;;;;;4880447;29;20277;-84
2022/04/17 05:22:40;;;;;;;2.03;1.30;;;6.80;56.70;;;;;;4870506;29;20028;-83
2022/04/17 05:25:06;;;;;;;1.57;1.20;;;6.70;56.70;;;;;;4895383;29;20536;-83
2022/04/17 05:27:32;;;;;;;1.95;1.20;;;6.80;56.80;;;;;;4897177;29;20036;-83
2022/04/17 05:29:58;;;;;;;1.92;1.35;;;6.80;56.90;;;;;;4875687;29;20017;-83
2022/04/17 05:32:23;;;;;;;2.20;1.33;;;6.80;57.10;;;;;;4897660;29;20390;-83
2022/04/17 05:34:49;;;;;;;2.17;1.10;;;6.80;57.20;;;;;;4872391;29;20032;-83
2022/04/17 05:37:15;;;;;;;1.70;1.03;;;6.80;57.10;;;;;;4889663;29;20409;-83
2022/04/17 05:39:41;;;;;;;2.25;1.30;;;6.90;57.20;;;;;;4889995;29;20383;-83
2022/04/17 05:42:07;;;;;;;1.85;1.13;;;6.90;57.20;;;;;;4906568;29;20087;-84
2022/04/17 05:44:35;;;;;;;1.53;1.07;;;6.90;57.10;;;;;;4895889;29;20032;-83
2022/04/17 05:47:01;;;;;;;2.33;1.23;;;7.00;57.20;;;;;;4896708;29;20295;-84
2022/04/17 05:49:26;;;;;;;1.67;1.08;;;7.00;57.10;;;;;;4879179;29;20394;-83
2022/04/17 05:51:53;;;;;;;2.97;1.10;;;7.00;57.00;;;;;;4893813;29;20032;-84
2022/04/17 05:54:19;;;;;;;1.77;1.05;;;7.10;57.10;;;;;;4895027;29;20510;-83
2022/04/17 05:56:45;;;;;;;1.40;1.10;;;7.10;57.00;;;;;;4883961;29;20452;-84
2022/04/17 05:59:10;;;;;;;1.03;0.80;;;7.20;57.00;;;;;;4882909;29;20334;-83
2022/04/17 06:01:36;;;;;;;1.20;0.95;;;7.30;57.60;;;;;;4896436;29;20087;-83
2022/04/17 06:04:02;;;;;;;1.83;1.00;;;7.40;56.90;;;;;;4889296;29;20480;-84
2022/04/17 06:06:27;;;;;;;1.70;0.90;;;7.40;56.90;;;;;;4917657;29;20036;-84
2022/04/17 06:08:53;;;;;;;1.50;1.10;;;7.50;56.80;;;;;;4866655;29;20126;-83
2022/04/17 06:11:18;;;;;;;2.23;0.90;;;7.60;56.70;;;;;;4900872;29;20024;-83
2022/04/17 06:13:44;;;;;;;1.70;1.13;;;7.70;56.80;;;;;;4884344;29;20287;-84
2022/04/17 06:16:09;;;;;;;1.97;1.00;;;7.80;56.80;;;;;;4914602;29;20607;-84
2022/04/17 06:18:35;;;;;;;2.00;1.10;;;7.90;57.00;;;;;;4881087;29;20580;-83
2022/04/17 06:21:01;;;;;;;1.80;1.13;;;8.00;57.20;;;;;;4887899;29;20273;-83
2022/04/17 06:23:28;;;;;;;2.08;1.00;;;8.10;57.20;;;;;;4857722;29;20024;-83
2022/04/17 06:25:53;;;;;;;1.60;0.90;;;8.30;57.10;;;;;;4896806;29;20249;-84
2022/04/17 06:28:19;;;;;;;1.47;1.00;;;8.40;57.00;;;;;;4912409;29;20261;-83
2022/04/17 06:30:44;;;;;;;1.47;1.20;;;8.50;57.00;;;;;;4872509;29;20531;-82
2022/04/17 06:33:10;;;;;;;1.70;1.10;;;8.70;57.00;;;;;;4896612;29;20291;-84
2022/04/17 06:35:37;;;;;;;2.40;1.10;;;8.80;57.00;;;;;;4886583;29;20579;-83
2022/04/17 06:38:05;;;;;;;1.50;1.02;;;8.90;57.10;;;;;;4868234;29;20040;-84
2022/04/17 06:40:36;;;;;;;1.48;1.10;;;9.10;57.00;;;;;;4896763;29;20389;-84
2022/04/17 06:43:05;;;;;;;1.50;1.17;;;9.30;57.40;;;;;;4895287;29;20304;-83
2022/04/17 06:45:33;;;;;;;1.25;1.00;;;9.40;57.80;;;;;;4907559;29;20404;-84
2022/04/17 06:48:20;;;;;;;1.60;1.13;;;9.70;58.00;;;;;;4924708;29;20473;-83
2022/04/17 06:50:47;;;;;;;1.30;1.10;;;10.00;58.30;;;;;;4896371;29;20111;-84
2022/04/17 06:53:13;;;;;;;1.80;1.15;;;10.40;59.10;;;;;;4894749;29;20028;-84
2022/04/17 06:55:39;;;;;;;1.67;1.10;;;10.80;59.20;;;;;;4884070;29;20031;-82
2022/04/17 06:58:05;;;;;;;1.83;1.30;;;11.20;58.60;;;;;;4881105;29;20111;-83
2022/04/17 07:00:31;;;;;;;1.63;1.15;;;11.50;57.80;;;;;;4887419;29;20066;-83
2022/04/17 07:02:57;;;;;;;2.57;1.23;;;11.80;57.30;;;;;;4899524;29;20075;-83
2022/04/17 07:05:23;;;;;;;1.88;1.20;;;12.10;56.80;;;;;;4891236;29;20392;-84
2022/04/17 07:08:00;;;;;;;2.13;1.30;;;12.30;56.50;;;;;;4885539;29;20033;-84
2022/04/17 07:10:27;;;;;;;2.00;1.20;;;12.50;55.90;;;;;;4869583;29;20052;-83
2022/04/17 07:12:53;;;;;;;2.00;1.13;;;12.70;56.00;;;;;;4876687;29;20036;-83
2022/04/17 07:15:24;;;;;;;1.42;1.23;;;12.90;56.70;;;;;;4874020;29;20040;-83
2022/04/17 07:17:50;;;;;;;1.85;1.30;;;13.00;56.30;;;;;;4896350;29;20031;-83
2022/04/17 07:20:16;;;;;;;2.22;1.30;;;13.30;57.30;;;;;;4889014;29;20884;-83
2022/04/17 07:22:42;;;;;;;2.53;1.20;;;13.70;58.50;;;;;;4880740;29;20040;-83
2022/04/17 07:25:09;;;;;;;2.40;1.27;;;14.10;57.80;;;;;;4875094;29;20207;-84
2022/04/17 07:27:36;;;;;;;1.95;1.27;;;14.50;57.70;;;;;;4911700;29;20699;-83
2022/04/17 07:30:13;;;;;;;2.13;1.40;;;14.90;57.50;;;;;;4884454;29;20036;-82
2022/04/17 07:32:41;;;;;;;1.83;1.33;;;15.40;56.90;;;;;;4893086;29;20036;-83
2022/04/17 07:35:08;;;;;;;2.03;1.40;;;15.80;56.80;;;;;;4875990;29;20433;-83
2022/04/17 07:37:35;;;;;;;1.90;1.40;;;16.20;56.30;;;;;;4867404;29;20059;-83
2022/04/17 07:40:02;;;;;;;2.00;1.40;;;16.60;56.20;;;;;;4858232;29;20111;-84
2022/04/17 07:42:28;;;;;;;2.95;1.55;;;17.00;56.50;;;;;;4893107;29;20759;-83
2022/04/17 07:44:53;;;;;;;1.47;1.20;;;17.40;56.30;;;;;;4896365;29;20028;-84
2022/04/17 07:47:19;;;;;;;1.85;1.40;;;17.80;56.10;;;;;;4878073;29;20682;-83
2022/04/17 07:49:45;;;;;;;1.50;1.30;;;18.30;55.70;;;;;;4892099;29;20297;-83
2022/04/17 07:52:11;;;;;;;1.85;1.30;;;18.80;55.50;;;;;;4871506;29;20595;-84
2022/04/17 07:54:36;;;;;;;1.88;1.30;;;19.30;55.30;;;;;;4867053;29;20059;-83
2022/04/17 07:57:02;;;;;;;2.30;1.60;;;19.80;54.80;;;;;;4871905;29;20154;-84
2022/04/17 07:59:28;;;;;;;1.88;1.40;;;20.20;54.20;;;;;;4902477;29;20100;-83
2022/04/17 08:02:01;;;;;;;1.90;1.40;;;20.70;53.80;;;;;;4887453;29;20051;-83
2022/04/17 08:04:30;;;;;;;1.58;1.30;;;21.10;52.70;;;;;;4873036;29;20096;-83
2022/04/17 08:06:56;;;;;;;2.50;1.52;;;21.50;50.90;;;;;;4872975;29;20036;-81
2022/04/17 08:09:22;;;;;;;1.47;1.30;;;21.90;50.00;;;;;;4861979;29;20111;-83
2022/04/17 08:11:51;;;;;;;3.10;1.60;;;22.10;49.50;;;;;;4857224;29;20303;-84
2022/04/17 08:14:18;;;;;;;1.73;1.48;;;22.40;49.00;;;;;;4895741;29;20340;-82
2022/04/17 08:16:44;;;;;;;1.85;1.30;;;22.60;48.10;;;;;;4890898;29;20063;-83
2022/04/17 08:19:10;;;;;;;1.70;1.33;;;22.80;47.90;;;;;;4907724;29;20093;-84
2022/04/17 08:21:36;;;;;;;1.70;1.35;;;22.90;47.60;;;;;;4878143;29;20126;-83
2022/04/17 08:24:02;;;;;;;1.80;1.40;;;23.20;46.90;;;;;;4896641;28;20261;-84
2022/04/17 08:26:27;;;;;;;1.58;1.33;;;23.40;46.70;;;;;;4869941;29;20025;-84
2022/04/17 08:28:53;;;;;;;1.40;1.30;;;23.60;46.20;;;;;;4890766;29;20035;-83
2022/04/17 08:31:19;;;;;;;1.40;1.30;;;23.80;45.20;;;;;;4888808;29;20039;-84
2022/04/17 08:33:44;;;;;;;1.42;1.20;;;23.90;45.00;;;;;;4893233;29;20051;-84
2022/04/17 08:36:12;;;;;;;1.67;1.30;;;24.10;44.90;;;;;;4877795;29;20769;-83
2022/04/17 08:38:38;;;;;;;1.75;1.25;;;24.30;44.30;;;;;;4884881;29;20040;-83
2022/04/17 08:41:05;;;;;;;1.80;1.30;;;24.40;43.70;;;;;;4869932;29;20040;-81
2022/04/17 08:43:32;;;;;;;2.00;1.15;;;24.50;43.40;;;;;;4875920;29;20097;-84
2022/04/17 08:45:58;;;;;;;2.08;1.40;;;24.70;42.80;;;;;;4873042;29;20424;-83
2022/04/17 08:48:24;;;;;;;1.50;1.40;;;24.90;42.70;;;;;;4875246;29;20469;-82
2022/04/17 08:50:53;;;;;;;1.92;1.58;;;25.00;42.50;;;;;;4899964;29;20036;-84
2022/04/17 08:53:20;;;;;;;2.08;1.40;;;25.20;40.50;;;;;;4897593;29;20036;-83
2022/04/17 08:55:47;;;;;;;2.03;1.40;;;25.30;40.90;;;;;;4869183;29;20261;-87
2022/04/17 08:58:13;;;;;;;1.55;1.40;;;25.40;40.70;;;;;;4881487;29;20114;-88
2022/04/17 09:00:39;;;;;;;2.10;1.70;;;25.50;41.00;;;;;;4893812;29;20727;-87
2022/04/17 09:03:08;;;;;;;1.58;1.30;;;25.70;40.50;;;;;;4876905;29;20043;-87
2022/04/17 09:05:37;;;;;;;1.60;1.30;;;25.90;39.80;;;;;;4874663;29;20565;-88
2022/04/17 09:08:17;;;;;;;1.73;1.30;;;26.10;40.40;;;;;;4876810;29;20374;-88
2022/04/17 09:10:54;;;;;;;1.77;1.38;;;26.40;38.50;;;;;;4888606;29;20242;-88
2022/04/17 09:13:27;;;;;;;1.60;1.30;;;26.70;38.70;;;;;;4874187;29;20032;-87
2022/04/17 09:15:54;;;;;;;1.75;1.48;;;27.00;38.00;;;;;;4902160;29;20036;-87
2022/04/17 09:18:20;;;;;;;1.80;1.23;;;27.20;38.80;;;;;;4886622;29;20552;-86
2022/04/17 09:20:46;;;;;;;1.73;1.33;;;27.40;37.80;;;;;;4890436;29;20278;-88
2022/04/17 09:23:12;;;;;;;1.77;1.38;;;27.50;37.30;;;;;;4893659;29;20080;-87
2022/04/17 09:25:38;;;;;;;1.65;1.50;;;27.60;37.50;;;;;;4860774;29;20421;-89
2022/04/17 09:28:08;;;;;;;1.60;1.40;;;27.60;37.80;;;;;;4873039;29;20017;-87
2022/04/17 09:30:40;;;;;;;1.50;1.40;;;27.80;35.80;;;;;;4876731;29;20642;-88
2022/04/17 09:33:12;;;;;;;2.20;1.48;;;28.00;36.20;;;;;;4902966;29;20497;-86
2022/04/17 09:35:38;;;;;;;1.83;1.55;;;28.20;36.00;;;;;;4895261;29;20036;-87
2022/04/17 09:38:06;;;;;;;1.70;1.50;;;28.40;36.30;;;;;;4909249;29;20132;-88
2022/04/17 09:40:32;;;;;;;1.40;1.30;;;28.50;35.30;;;;;;4872933;29;20096;-88
2022/04/17 09:43:08;;;;;;;1.63;1.40;;;28.60;35.00;;;;;;4877051;29;20059;-87
2022/04/17 09:45:34;;;;;;;1.63;1.48;;;28.80;33.00;;;;;;4913555;28;20047;-87
2022/04/17 09:48:00;;;;;;;1.95;1.75;;;29.00;34.70;;;;;;4912526;29;20028;-87
2022/04/17 09:50:30;;;;;;;2.20;1.63;;;29.10;34.20;;;;;;4908046;29;20032;-88
2022/04/17 09:52:58;;;;;;;1.73;1.40;;;29.20;32.20;;;;;;4896057;29;20032;-85
2022/04/17 09:55:27;;;;;;;2.45;1.70;;;29.30;33.30;;;;;;4919819;29;20075;-84
2022/04/17 09:57:58;;;;;;;1.60;1.50;;;29.40;32.20;;;;;;4913395;28;20043;-86
2022/04/17 10:00:24;;;;;;;2.22;1.50;;;29.40;32.50;;;;;;4889321;29;20094;-86
2022/04/17 10:02:50;;;;;;;1.55;1.40;;;29.50;32.80;;;;;;4910210;29;20768;-85
2022/04/17 10:05:18;;;;;;;2.22;1.73;;;29.50;31.90;;;;;;4878630;29;20036;-85
2022/04/17 10:07:49;;;;;;;1.92;1.60;;;29.50;31.60;;;;;;4913138;29;20203;-85
2022/04/17 10:10:17;;;;;;;1.60;1.50;;;29.60;31.20;;;;;;4878083;29;20060;-84
2022/04/17 10:12:46;;;;;;;1.98;1.50;;;29.70;32.30;;;;;;4894157;29;20314;-86
2022/04/17 10:15:13;;;;;;;1.63;1.40;;;29.80;32.10;;;;;;4908126;29;20289;-85
2022/04/17 10:17:41;;;;;;;2.08;1.70;;;30.00;32.00;;;;;;4908981;29;20214;-85
2022/04/17 10:20:09;;;;;;;1.95;1.70;;;30.10;31.50;;;;;;4910302;29;20162;-85
2022/04/17 10:22:36;;;;;;;2.63;1.70;;;30.20;31.00;;;;;;4906020;29;20032;-85
2022/04/17 10:25:04;;;;;;;2.00;1.80;;;30.20;31.20;;;;;;4895305;29;20028;-85
2022/04/17 10:27:58;;;;;;;2.22;1.70;;;30.30;30.50;;;;;;4862247;29;20032;-86
2022/04/17 10:30:32;;;;;;;2.30;2.10;;;30.50;29.00;;;;;;4860338;29;20131;-85
2022/04/17 10:33:16;;;;;;;2.30;1.80;;;30.60;29.50;;;;;;4894299;29;20024;-85
2022/04/17 10:36:17;;;;;;;2.60;2.10;;;30.70;28.80;;;;;;4893474;29;20187;-84
2022/04/17 10:39:01;;;;;;;3.13;1.50;;;30.70;29.60;;;;;;4907699;29;20508;-85
2022/04/17 10:41:27;;;;;;;2.20;1.80;;;30.80;29.20;;;;;;4875713;29;20441;-86
2022/04/17 10:43:57;;;;;;;1.90;1.70;;;30.80;29.60;;;;;;4898234;29;20115;-85
2022/04/17 10:46:23;;;;;;;2.30;1.85;;;30.80;29.40;;;;;;4875898;29;20680;-86
2022/04/17 10:48:50;;;;;;;1.97;1.50;;;30.90;29.30;;;;;;4879693;29;20255;-85
2022/04/17 10:51:30;;;;;;;3.67;1.88;;;30.90;29.00;;;;;;4893722;29;20039;-86
2022/04/17 10:54:04;;;;;;;2.38;1.50;;;31.10;27.70;;;;;;4891474;29;20356;-84
2022/04/17 10:56:34;;;;;;;2.55;2.10;;;31.20;29.10;;;;;;4890095;29;20261;-86
2022/04/17 10:59:05;;;;;;;2.22;1.90;;;31.20;28.20;;;;;;4890358;29;20494;-84
2022/04/17 11:01:43;;;;;;;2.00;1.80;;;31.20;27.90;;;;;;4877129;29;20106;-85
2022/04/17 11:04:25;;;;;;;2.38;1.75;;;31.20;27.00;;;;;;4884902;29;20095;-86
2022/04/17 11:07:12;;;;;;;2.10;1.90;;;31.20;27.00;;;;;;4916001;29;20023;-85
2022/04/17 11:09:47;;;;;;;2.08;1.88;;;31.20;27.20;;;;;;4891790;29;20640;-86
2022/04/17 11:12:23;;;;;;;2.30;1.70;;;31.30;26.80;;;;;;4911472;29;20059;-85
2022/04/17 11:14:54;;;;;;;1.70;1.53;;;31.30;27.60;;;;;;4879863;29;20142;-85
2022/04/17 11:17:24;;;;;;;2.17;1.77;;;31.40;27.30;;;;;;4886830;29;20092;-85
2022/04/17 11:19:55;;;;;;;2.13;1.92;;;31.50;27.60;;;;;;4879796;29;20032;-86
2022/04/17 11:22:27;;;;;;;2.33;1.60;;;31.60;27.20;;;;;;4905621;29;20037;-86
2022/04/17 11:24:55;;;;;;;2.42;1.80;;;31.80;27.20;;;;;;4904296;29;20024;-86
2022/04/17 11:27:49;;;;;;;2.13;1.90;;;31.90;27.10;;;;;;4875650;29;20148;-86
2022/04/17 11:30:17;;;;;;;2.10;1.70;;;32.00;26.00;;;;;;4874518;29;20615;-86
2022/04/17 11:32:43;;;;;;;2.28;1.80;;;32.20;27.50;;;;;;4850468;29;20103;-85
2022/04/17 11:35:14;;;;;;;2.10;1.70;;;32.30;27.30;;;;;;4877621;29;20444;-86
2022/04/17 11:37:48;;;;;;;1.67;1.58;;;32.40;25.80;;;;;;4893433;29;20060;-86
2022/04/17 11:40:15;;;;;;;2.20;1.80;;;32.40;26.00;;;;;;4910045;29;20035;-87
2022/04/17 11:42:49;;;;;;;2.30;1.65;;;32.40;25.90;;;;;;4885868;29;20369;-86
2022/04/17 11:45:25;;;;;;;2.00;1.80;;;32.40;24.90;;;;;;4870687;29;20454;-85
2022/04/17 11:47:51;;;;;;;1.90;1.70;;;32.30;24.60;;;;;;4862658;29;20519;-86
2022/04/17 11:50:28;;;;;;;1.70;1.60;;;32.30;25.70;;;;;;4892404;29;20107;-86
2022/04/17 11:53:03;;;;;;;1.90;1.70;;;32.30;24.90;;;;;;4891578;29;20032;-87
2022/04/17 11:55:33;;;;;;;1.70;1.60;;;32.40;25.20;;;;;;4901518;29;20066;-85
2022/04/17 11:58:00;;;;;;;1.73;1.63;;;32.40;25.60;;;;;;4888340;29;20028;-85
2022/04/17 12:00:27;;;;;;;1.63;1.43;;;32.50;25.20;;;;;;4907211;29;20560;-85
2022/04/17 12:03:05;;;;;;;2.13;1.92;;;32.50;25.30;;;;;;4846847;29;20426;-86
2022/04/17 12:05:32;;;;;;;2.03;1.70;;;32.50;24.00;;;;;;4888636;29;20025;-85
2022/04/17 12:08:06;;;;;;;2.10;1.75;;;32.50;24.80;;;;;;4909409;29;20047;-86
2022/04/17 12:10:33;;;;;;;1.50;1.40;;;32.40;23.90;;;;;;4905917;29;20063;-85
2022/04/17 12:13:20;;;;;;;1.77;1.20;;;32.40;24.40;;;;;;4894323;29;20413;-86
2022/04/17 12:15:48;;;;;;;1.60;1.50;;;32.40;23.40;;;;;;4886586;29;20286;-85
2022/04/17 12:18:18;;;;;;;1.58;1.40;;;32.40;24.60;;;;;;4877191;29;20024;-86
2022/04/17 12:20:53;;;;;;;1.30;1.20;;;32.40;24.00;;;;;;4875544;29;20187;-87
2022/04/17 12:23:18;;;;;;;1.60;1.30;;;32.50;24.70;;;;;;4890666;29;20509;-86
2022/04/17 12:25:44;;;;;;;1.60;1.40;;;32.60;24.60;;;;;;4875577;29;20047;-86
2022/04/17 12:28:11;;;;;;;1.38;1.20;;;32.70;24.40;;;;;;4878005;29;20032;-85
2022/04/17 12:30:37;;;;;;;1.40;1.20;;;32.90;24.20;;;;;;4906779;29;20390;-87
2022/04/17 12:33:22;;;;;;;1.33;1.20;;;32.90;24.00;;;;;;4861088;29;20064;-86
2022/04/17 12:36:02;;;;;;;1.45;1.35;;;33.00;23.30;;;;;;4877791;29;20565;-85
2022/04/17 12:38:27;;;;;;;1.73;1.40;;;33.00;23.10;;;;;;4884349;29;20048;-85
2022/04/17 12:40:53;;;;;;;1.40;1.30;;;33.00;23.20;;;;;;4883637;29;20330;-87
2022/04/17 12:43:20;;;;;;;1.20;1.10;;;33.00;22.80;;;;;;4905371;29;20326;-86
2022/04/17 12:45:56;;;;;;;1.40;1.30;;;32.90;22.50;;;;;;4871063;29;20043;-86
2022/04/17 12:48:33;;;;;;;1.30;1.20;;;32.80;21.60;;;;;;4886150;29;20301;-85
2022/04/17 12:51:04;;;;;;;1.50;1.10;;;32.70;22.10;;;;;;4903078;29;20274;-84
2022/04/17 12:53:50;;;;;;;1.40;1.17;;;32.70;21.50;;;;;;4892886;29;20028;-85
2022/04/17 12:56:18;;;;;;;1.40;1.30;;;32.60;22.10;;;;;;4885991;29;20385;-85
2022/04/17 12:58:48;;;;;;;1.92;1.30;;;32.50;22.30;;;;;;4880157;29;20052;-86
2022/04/17 13:01:20;;;;;;;1.35;1.20;;;32.40;21.70;;;;;;4887672;29;20209;-86
2022/04/17 13:03:47;;;;;;;1.30;1.20;;;32.40;21.10;;;;;;4879937;29;20039;-86
2022/04/17 13:06:22;;;;;;;1.42;1.30;;;32.40;22.00;;;;;;4881891;29;20207;-86